Time;durP1;ratioP1;P1;durP2;ratioP2;P2;SDS_P1;SDS_P2;PMS_P1;PMS_P2;Temp;Humidity;BMP_temperature;BMP_pressure;BME280_temperature;BME280_humidity;BME280_pressure;Samples;Min_cycle;Max_cycle;Signal;HPM_P1;HPM_P2
2021/12/20 00:00:25;;;;;;;0.50;0.50;;;8.90;99.90;9.20;102640.00;;;;5098722;28;20198;-70
2021/12/20 00:03:00;;;;;;;0.47;0.47;;;8.90;99.90;9.40;102687.00;;;;5115477;28;20202;-70
2021/12/20 00:05:38;;;;;;;0.43;0.43;;;9.10;99.90;9.50;102669.00;;;;5115380;28;20530;-70
2021/12/20 00:08:12;;;;;;;0.40;0.40;;;9.10;99.90;9.00;102661.00;;;;5098148;28;20184;-69
2021/12/20 00:10:45;;;;;;;1.53;1.53;;;9.00;99.90;9.30;102650.00;;;;5098007;28;20184;-70
2021/12/20 00:13:23;;;;;;;0.47;0.47;;;9.10;99.90;9.30;102661.00;;;;5097460;28;20209;-69
2021/12/20 00:15:52;;;;;;;0.40;0.40;;;9.00;99.90;9.20;102674.00;;;;5116079;28;20180;-69
2021/12/20 00:18:31;;;;;;;0.40;0.40;;;9.00;99.90;9.60;102662.00;;;;5098171;28;20662;-70
2021/12/20 00:21:03;;;;;;;0.43;0.43;;;9.20;99.90;9.60;102664.00;;;;5114763;28;20548;-70
2021/12/20 00:23:35;;;;;;;0.50;0.50;;;9.20;99.90;9.50;102667.00;;;;5114798;28;20637;-70
2021/12/20 00:26:08;;;;;;;0.40;0.40;;;9.20;99.90;9.40;102669.00;;;;5114697;28;20540;-69
2021/12/20 00:28:42;;;;;;;0.40;0.40;;;9.30;99.90;9.20;102655.00;;;;5114519;28;20172;-70
2021/12/20 00:31:19;;;;;;;0.40;0.40;;;9.10;99.90;9.30;102653.00;;;;5115662;28;20188;-69
2021/12/20 00:33:47;;;;;;;0.83;0.83;;;8.90;99.90;9.60;102671.00;;;;5114608;28;20182;-70
2021/12/20 00:36:26;;;;;;;0.50;0.50;;;9.10;99.90;9.40;102650.00;;;;5114425;28;20587;-69
2021/12/20 00:41:52;;;;;;;0.40;0.40;;;9.20;99.90;9.30;102656.00;;;;5114528;28;20648;-70
2021/12/20 00:44:28;;;;;;;0.40;0.40;;;9.20;99.90;9.60;102650.00;;;;5115526;28;20188;-69
2021/12/20 00:47:01;;;;;;;0.50;0.50;;;9.30;99.90;9.60;102644.00;;;;5116000;28;20172;-71
2021/12/20 00:49:30;;;;;;;0.50;0.50;;;9.30;99.90;9.70;102644.00;;;;5115220;28;20176;-70
2021/12/20 00:52:03;;;;;;;0.50;0.50;;;9.30;99.90;9.30;102641.00;;;;5114101;28;20622;-70
2021/12/20 00:54:40;;;;;;;0.40;0.40;;;9.20;99.90;9.30;102650.00;;;;5113688;28;20576;-70
2021/12/20 00:57:10;;;;;;;0.60;0.60;;;9.00;99.90;9.60;102642.00;;;;5114027;28;20183;-70
2021/12/20 00:59:44;;;;;;;0.53;0.53;;;9.10;99.90;9.30;102647.00;;;;5114233;28;20629;-70
2021/12/20 01:02:21;;;;;;;0.40;0.40;;;9.00;99.90;9.10;102646.00;;;;5114014;28;20160;-70
2021/12/20 01:04:54;;;;;;;0.40;0.40;;;9.00;99.90;9.40;102624.00;;;;5115256;28;20655;-70
2021/12/20 01:07:29;;;;;;;0.40;0.40;;;9.10;99.90;8.90;102634.00;;;;5113920;28;20195;-70
2021/12/20 01:10:03;;;;;;;0.70;0.70;;;8.90;99.90;8.90;102632.00;;;;5114931;28;20274;-70
2021/12/20 01:12:45;;;;;;;0.80;0.80;;;8.80;99.90;9.00;102645.00;;;;5113942;28;20199;-70
2021/12/20 01:15:22;;;;;;;0.50;0.50;;;8.80;99.90;9.50;102640.00;;;;5113813;28;20178;-70
2021/12/20 01:17:57;;;;;;;0.40;0.40;;;9.10;99.90;9.10;102635.00;;;;5113854;28;20644;-70
2021/12/20 01:20:31;;;;;;;0.40;0.40;;;9.00;99.90;9.20;102623.00;;;;5113600;28;20183;-70
2021/12/20 01:23:07;;;;;;;0.40;0.40;;;8.90;99.90;9.20;102625.00;;;;5113200;28;20179;-69
2021/12/20 01:25:47;;;;;;;0.80;0.80;;;8.90;99.90;9.10;102612.00;;;;5113727;28;20636;-70
2021/12/20 01:28:24;;;;;;;0.40;0.40;;;8.90;99.90;8.90;102638.00;;;;5113415;28;20165;-70
2021/12/20 01:31:03;;;;;;;0.40;0.40;;;8.80;99.90;9.10;102623.00;;;;5113525;28;20180;-70
2021/12/20 01:33:41;;;;;;;0.30;0.30;;;8.90;99.90;8.70;102622.00;;;;5113279;28;20191;-69
2021/12/20 01:36:17;;;;;;;0.60;0.60;;;8.70;99.90;8.50;102614.00;;;;5112969;28;20263;-68
2021/12/20 01:38:53;;;;;;;0.40;0.40;;;8.70;99.90;8.80;102609.00;;;;5113359;28;20172;-69
2021/12/20 01:41:25;;;;;;;1.13;1.13;;;8.60;99.90;8.60;102626.00;;;;5113124;28;20219;-70
2021/12/20 01:43:59;;;;;;;0.30;0.30;;;8.60;99.90;8.40;102611.00;;;;5096566;28;20881;-69
2021/12/20 01:46:27;;;;;;;0.40;0.40;;;8.50;99.90;8.50;102611.00;;;;5113052;28;20192;-69
2021/12/20 01:49:10;;;;;;;0.40;0.40;;;8.40;99.90;8.30;102611.00;;;;5096385;28;20175;-69
2021/12/20 01:54:34;;;;;;;0.63;0.60;;;8.30;99.90;7.90;102630.00;;;;5113037;28;20192;-68
2021/12/20 01:57:08;;;;;;;0.30;0.30;;;8.20;99.90;8.80;102638.00;;;;5096108;28;20190;-69
2021/12/20 01:59:44;;;;;;;0.30;0.30;;;8.30;99.90;8.90;102642.00;;;;5095886;28;20621;-69
2021/12/20 02:02:22;;;;;;;0.30;0.30;;;8.50;99.90;9.10;102597.00;;;;5112827;28;20609;-68
2021/12/20 02:05:04;;;;;;;0.40;0.40;;;8.70;99.90;8.70;102624.00;;;;5112636;28;20176;-69
2021/12/20 02:07:49;;;;;;;0.50;0.50;;;8.60;99.90;8.80;102632.00;;;;5112684;28;20179;-69
2021/12/20 02:10:21;;;;;;;3.43;3.23;;;8.70;99.90;8.40;102633.00;;;;5112748;28;20176;-69
2021/12/20 02:12:55;;;;;;;0.40;0.40;;;8.50;99.90;8.40;102616.00;;;;5096038;28;20203;-70
2021/12/20 02:15:30;;;;;;;0.30;0.30;;;8.40;99.90;8.40;102620.00;;;;5112816;28;20538;-69
2021/12/20 02:18:01;;;;;;;0.40;0.40;;;8.30;99.90;8.70;102580.00;;;;5112741;28;20507;-69
2021/12/20 02:20:34;;;;;;;0.53;0.53;;;8.60;99.90;8.80;102594.00;;;;5095767;28;20178;-68
2021/12/20 02:23:08;;;;;;;1.27;1.27;;;8.60;99.90;8.50;102624.00;;;;5112575;28;20705;-70
2021/12/20 02:25:45;;;;;;;0.30;0.30;;;8.50;99.90;8.80;102613.00;;;;5112828;28;20196;-69
2021/12/20 02:28:24;;;;;;;0.40;0.40;;;8.50;99.90;8.30;102629.00;;;;5112651;28;20228;-68
2021/12/20 02:39:10;;;;;;;1.77;1.73;;;8.40;99.90;8.50;102634.00;;;;5112665;28;20241;-69
2021/12/20 02:41:41;;;;;;;0.40;0.40;;;8.30;99.90;8.50;102623.00;;;;5112380;28;20548;-69
2021/12/20 02:44:18;;;;;;;1.50;1.10;;;8.40;99.90;8.80;102623.00;;;;5112420;28;20176;-69
2021/12/20 02:49:30;;;;;;;0.40;0.40;;;8.40;99.90;8.10;102619.00;;;;5113354;28;20183;-69
2021/12/20 02:52:08;;;;;;;0.30;0.30;;;8.20;99.90;8.60;102611.00;;;;5112256;28;20686;-69
2021/12/20 02:54:42;;;;;;;0.40;0.40;;;8.40;99.90;8.80;102605.00;;;;5095126;28;20779;-69
2021/12/20 02:57:16;;;;;;;0.43;0.43;;;8.40;99.90;9.10;102615.00;;;;5112372;28;20183;-69
2021/12/20 02:59:50;;;;;;;0.90;0.90;;;8.70;99.90;9.20;102614.00;;;;5112528;28;20158;-69
2021/12/20 03:02:23;;;;;;;0.50;0.50;;;8.80;99.90;8.90;102600.00;;;;5112134;28;20180;-69
2021/12/20 03:05:01;;;;;;;0.40;0.40;;;8.80;99.90;9.10;102598.00;;;;5112240;28;20198;-69
2021/12/20 03:08:11;;;;;;;1.43;1.33;;;8.80;99.90;9.30;102605.00;;;;5112204;28;20156;-69
2021/12/20 03:10:42;;;;;;;1.17;1.17;;;9.00;99.90;8.90;102598.00;;;;5108374;28;20178;-69
2021/12/20 03:13:22;;;;;;;0.40;0.40;;;8.80;99.90;8.80;102599.00;;;;5112167;28;20580;-69
2021/12/20 03:16:01;;;;;;;0.50;0.50;;;8.80;99.90;8.80;102554.00;;;;5112414;28;20177;-69
2021/12/20 03:18:32;;;;;;;3.43;3.13;;;8.70;99.90;9.30;102590.00;;;;5113194;28;20172;-69
2021/12/20 03:21:05;;;;;;;4.13;1.47;;;8.90;99.90;8.90;102591.00;;;;5115968;28;20693;-68
2021/12/20 03:23:33;;;;;;;0.30;0.30;;;8.70;99.90;8.60;102602.00;;;;5115745;28;20540;-69
2021/12/20 03:26:02;;;;;;;0.40;0.40;;;8.60;99.90;8.20;102601.00;;;;5115950;28;20651;-68
2021/12/20 03:28:39;;;;;;;0.30;0.30;;;8.40;99.90;8.20;102600.00;;;;5115958;28;20181;-69
2021/12/20 03:31:12;;;;;;;0.40;0.40;;;8.30;99.90;8.50;102604.00;;;;5115293;28;20188;-69
2021/12/20 03:33:49;;;;;;;0.40;0.40;;;8.40;99.90;8.50;102563.00;;;;5115667;28;20184;-68
2021/12/20 03:36:23;;;;;;;0.50;0.50;;;8.40;99.90;8.10;102594.00;;;;5115791;28;20192;-69
2021/12/20 03:38:57;;;;;;;1.73;1.70;;;8.30;99.90;8.20;102617.00;;;;5115853;28;20191;-69
2021/12/20 03:41:29;;;;;;;0.30;0.30;;;8.10;99.90;7.70;102610.00;;;;5098516;28;20182;-68
2021/12/20 03:44:16;;;;;;;0.30;0.30;;;7.90;99.90;8.00;102612.00;;;;5115912;28;20161;-69
2021/12/20 03:46:50;;;;;;;1.80;1.70;;;8.00;99.90;8.00;102559.00;;;;5115375;28;20182;-69
2021/12/20 03:49:24;;;;;;;0.30;0.30;;;8.10;99.90;7.70;102600.00;;;;5115745;28;20530;-69
2021/12/20 03:51:58;;;;;;;0.50;0.50;;;8.00;99.90;7.80;102604.00;;;;5115148;28;20218;-68
2021/12/20 03:54:33;;;;;;;0.53;0.53;;;7.90;99.90;8.10;102602.00;;;;5098217;28;20188;-69
2021/12/20 03:57:04;;;;;;;0.77;0.67;;;7.90;99.90;7.90;102602.00;;;;5115523;28;20239;-69
2021/12/20 03:59:33;;;;;;;0.30;0.30;;;7.90;99.90;7.90;102595.00;;;;5116639;28;20177;-69
2021/12/20 04:02:10;;;;;;;0.40;0.40;;;8.00;99.90;8.10;102589.00;;;;5115990;28;20263;-69
2021/12/20 04:04:37;;;;;;;0.83;0.83;;;8.10;99.90;7.70;102556.00;;;;5116250;27;20175;-69
2021/12/20 04:07:14;;;;;;;0.30;0.30;;;8.00;99.90;7.70;102589.00;;;;5115009;28;20628;-69
2021/12/20 04:09:49;;;;;;;0.80;0.80;;;7.90;99.90;8.30;102555.00;;;;5115041;28;20177;-69
2021/12/20 04:12:28;;;;;;;0.37;0.37;;;8.10;99.90;7.90;102595.00;;;;5115063;28;20221;-69
2021/12/20 04:15:05;;;;;;;7.00;2.23;;;8.10;99.90;7.80;102592.00;;;;5116003;28;20166;-69
2021/12/20 04:17:38;;;;;;;0.30;0.30;;;7.90;99.90;8.20;102587.00;;;;5114866;28;20176;-69
2021/12/20 04:20:13;;;;;;;1.83;1.73;;;8.00;99.90;8.10;102581.00;;;;5116050;28;20180;-69
2021/12/20 04:22:47;;;;;;;0.40;0.40;;;8.10;99.90;7.70;102578.00;;;;5114565;28;20240;-69
2021/12/20 04:25:27;;;;;;;0.30;0.30;;;8.00;99.90;7.70;102589.00;;;;5115236;28;20172;-69
2021/12/20 04:28:00;;;;;;;0.30;0.30;;;7.90;99.90;8.00;102544.00;;;;5114609;28;20176;-70
2021/12/20 04:30:40;;;;;;;0.30;0.30;;;8.00;99.90;7.70;102583.00;;;;5097387;28;20609;-70
2021/12/20 04:33:16;;;;;;;1.53;1.43;;;7.90;99.90;7.40;102583.00;;;;5114478;28;20703;-70
2021/12/20 04:35:48;;;;;;;0.30;0.30;;;7.80;99.90;8.20;102593.00;;;;5114412;28;20207;-70
2021/12/20 04:38:26;;;;;;;0.30;0.30;;;8.00;99.90;7.80;102587.00;;;;5097573;28;20210;-70
2021/12/20 04:41:03;;;;;;;0.30;0.30;;;7.90;99.90;8.20;102587.00;;;;5097919;28;20179;-70
2021/12/20 04:43:39;;;;;;;0.80;0.80;;;8.00;99.90;7.70;102597.00;;;;5114507;28;20191;-70
2021/12/20 04:46:16;;;;;;;0.30;0.30;;;7.90;99.90;8.40;102579.00;;;;5097687;28;20271;-70
2021/12/20 04:48:56;;;;;;;0.70;0.70;;;8.00;99.90;8.90;102593.00;;;;5097492;28;20187;-70
2021/12/20 04:51:30;;;;;;;0.40;0.40;;;8.40;99.90;9.10;102604.00;;;;5114369;28;20252;-71
2021/12/20 04:54:02;;;;;;;0.30;0.30;;;8.70;99.90;8.30;102538.00;;;;5114009;28;20179;-70
2021/12/20 04:56:38;;;;;;;0.30;0.30;;;8.40;99.90;8.30;102602.00;;;;5114524;28;20187;-70
2021/12/20 04:59:08;;;;;;;0.30;0.30;;;8.20;99.90;8.40;102584.00;;;;5096831;28;20188;-70
2021/12/20 05:01:46;;;;;;;0.40;0.40;;;8.30;99.90;8.30;102599.00;;;;5096808;28;20183;-70
2021/12/20 05:04:25;;;;;;;0.30;0.30;;;8.20;99.90;8.90;102557.00;;;;5115227;28;20172;-70
2021/12/20 05:06:56;;;;;;;0.40;0.40;;;8.30;99.90;9.10;102605.00;;;;5115370;28;20168;-70
2021/12/20 05:09:36;;;;;;;0.37;0.37;;;8.60;99.90;9.00;102578.00;;;;5096712;28;20177;-69
2021/12/20 05:12:19;;;;;;;0.30;0.30;;;8.60;99.90;9.10;102609.00;;;;5114794;28;20199;-69
2021/12/20 05:14:53;;;;;;;0.30;0.30;;;8.70;99.90;8.90;102601.00;;;;5113379;28;20180;-69
2021/12/20 05:17:21;;;;;;;0.30;0.30;;;8.60;99.90;9.20;102561.00;;;;5096998;28;20191;-69
2021/12/20 05:19:53;;;;;;;0.30;0.30;;;8.80;99.90;8.60;102602.00;;;;5113887;28;20166;-69
2021/12/20 05:22:32;;;;;;;0.30;0.30;;;8.60;99.90;8.70;102606.00;;;;5113683;28;20187;-70
2021/12/20 05:25:04;;;;;;;0.30;0.30;;;8.50;99.90;9.20;102598.00;;;;5113457;28;20173;-70
2021/12/20 05:27:40;;;;;;;0.43;0.43;;;8.60;99.90;8.00;102604.00;;;;5114451;28;20162;-69
2021/12/20 05:30:19;;;;;;;0.27;0.27;;;8.40;99.90;7.80;102598.00;;;;5114636;28;20180;-69
2021/12/20 05:32:53;;;;;;;0.30;0.30;;;8.10;99.90;7.50;102606.00;;;;5113184;28;20224;-69
2021/12/20 05:35:27;;;;;;;0.40;0.40;;;7.80;99.90;7.70;102600.00;;;;5113492;28;20184;-70
2021/12/20 05:38:01;;;;;;;0.30;0.30;;;7.80;99.90;7.50;102601.00;;;;5113444;28;20171;-69
2021/12/20 05:40:38;;;;;;;0.43;0.43;;;7.70;99.90;7.50;102612.00;;;;5113040;28;20206;-69
2021/12/20 05:43:15;;;;;;;16.73;2.03;;;7.80;99.90;7.50;102614.00;;;;5112898;28;20176;-70
2021/12/20 05:45:51;;;;;;;0.30;0.30;;;7.70;99.90;7.40;102605.00;;;;5113506;28;20176;-69
2021/12/20 05:48:31;;;;;;;0.30;0.30;;;7.60;99.90;7.70;102610.00;;;;5113306;28;20233;-70
2021/12/20 05:51:08;;;;;;;0.30;0.30;;;7.70;99.90;8.00;102606.00;;;;5113115;28;20206;-69
2021/12/20 05:53:39;;;;;;;0.30;0.30;;;7.80;99.90;8.30;102620.00;;;;5112850;28;20195;-69
2021/12/20 05:56:15;;;;;;;0.30;0.30;;;8.00;99.90;8.40;102625.00;;;;5113184;28;20215;-69
2021/12/20 05:58:48;;;;;;;1.63;1.23;;;8.10;99.90;7.80;102619.00;;;;5112203;28;20199;-69
2021/12/20 06:01:27;;;;;;;0.30;0.30;;;7.90;99.90;7.80;102617.00;;;;5114214;28;20233;-70
2021/12/20 06:04:04;;;;;;;0.40;0.40;;;7.80;99.90;7.70;102578.00;;;;5114275;28;20162;-70
2021/12/20 06:06:38;;;;;;;0.30;0.30;;;7.90;99.90;7.90;102616.00;;;;5112703;28;20175;-70
2021/12/20 06:09:14;;;;;;;0.30;0.30;;;7.70;99.90;8.30;102583.00;;;;5114570;28;20278;-70
2021/12/20 06:11:54;;;;;;;0.30;0.30;;;7.90;99.90;8.80;102625.00;;;;5112912;28;20191;-69
2021/12/20 06:14:33;;;;;;;0.30;0.30;;;8.20;99.90;8.60;102635.00;;;;5112626;28;20212;-70
2021/12/20 06:17:06;;;;;;;0.30;0.30;;;8.20;99.90;8.60;102629.00;;;;5096887;28;20172;-69
2021/12/20 06:19:40;;;;;;;0.33;0.33;;;8.30;99.90;8.80;102594.00;;;;5112995;28;20177;-71
2021/12/20 06:22:20;;;;;;;0.30;0.30;;;8.30;99.90;8.30;102631.00;;;;5112741;28;20184;-71
2021/12/20 06:24:51;;;;;;;0.30;0.30;;;8.20;99.90;8.40;102639.00;;;;5111537;28;20192;-71
2021/12/20 06:27:30;;;;;;;0.30;0.30;;;8.10;99.90;8.80;102626.00;;;;5113027;28;20212;-70
2021/12/20 06:30:09;;;;;;;0.30;0.30;;;8.40;99.90;8.40;102639.00;;;;5114060;28;20179;-70
2021/12/20 06:32:50;;;;;;;0.30;0.30;;;8.40;99.90;7.70;102644.00;;;;5112626;28;20238;-69
2021/12/20 06:35:27;;;;;;;0.30;0.30;;;8.00;99.90;8.00;102581.00;;;;5095880;28;20211;-70
2021/12/20 06:38:11;;;;;;;0.30;0.30;;;7.90;99.90;7.60;102617.00;;;;5112604;28;20183;-69
2021/12/20 06:40:52;;;;;;;0.30;0.30;;;7.80;99.90;8.30;102635.00;;;;5112090;28;20654;-69
2021/12/20 06:43:31;;;;;;;0.30;0.30;;;7.90;99.90;8.50;102644.00;;;;5112591;28;20179;-70
2021/12/20 06:46:04;;;;;;;0.30;0.30;;;8.10;99.90;8.70;102649.00;;;;5112281;28;20188;-70
2021/12/20 06:48:39;;;;;;;0.30;0.30;;;8.30;99.90;8.50;102643.00;;;;5095448;28;20275;-70
2021/12/20 06:51:07;;;;;;;0.30;0.30;;;8.20;99.90;8.20;102638.00;;;;5112496;28;20213;-69
2021/12/20 06:53:38;;;;;;;0.30;0.30;;;8.10;99.90;8.10;102626.00;;;;5096851;28;20184;-70
2021/12/20 06:56:15;;;;;;;0.30;0.30;;;8.00;99.90;7.80;102599.00;;;;5116413;28;20173;-70
2021/12/20 06:58:48;;;;;;;0.30;0.30;;;8.00;99.90;7.60;102620.00;;;;5118145;28;20156;-69
2021/12/20 07:01:24;;;;;;;0.20;0.20;;;7.80;99.90;7.60;102621.00;;;;5099729;28;20542;-70
2021/12/20 07:03:58;;;;;;;0.30;0.30;;;7.70;99.90;7.60;102629.00;;;;5117750;28;20174;-70
2021/12/20 07:06:27;;;;;;;0.30;0.30;;;7.70;99.90;7.80;102635.00;;;;5116617;28;20518;-70
2021/12/20 07:09:01;;;;;;;0.30;0.30;;;7.80;99.90;7.90;102639.00;;;;5116260;28;20185;-70
2021/12/20 07:11:42;;;;;;;0.30;0.30;;;7.70;99.90;8.60;102644.00;;;;5117186;28;20200;-70
2021/12/20 07:14:20;;;;;;;0.30;0.30;;;8.10;99.90;8.70;102649.00;;;;5116152;28;20241;-70
2021/12/20 07:16:56;;;;;;;0.30;0.30;;;8.30;99.90;8.50;102660.00;;;;5099218;28;20178;-69
2021/12/20 07:19:35;;;;;;;0.40;0.40;;;8.50;99.90;8.10;102649.00;;;;5116277;28;20316;-69
2021/12/20 07:22:14;;;;;;;0.33;0.33;;;8.30;99.90;7.50;102628.00;;;;5116214;28;20160;-69
2021/12/20 07:24:54;;;;;;;0.30;0.30;;;7.90;99.90;7.60;102613.00;;;;5115398;28;20652;-69
2021/12/20 07:27:30;;;;;;;0.40;0.40;;;7.70;99.90;7.90;102656.00;;;;5115891;28;20195;-69
2021/12/20 07:30:08;;;;;;;0.30;0.30;;;7.80;99.90;8.00;102663.00;;;;5116043;28;20180;-69
2021/12/20 07:32:45;;;;;;;0.30;0.30;;;7.90;99.90;7.90;102641.00;;;;5115765;28;20244;-69
2021/12/20 07:35:24;;;;;;;0.30;0.30;;;7.80;99.90;8.20;102659.00;;;;5115784;28;20181;-69
2021/12/20 07:38:02;;;;;;;5.20;0.90;;;7.90;99.90;8.30;102673.00;;;;5115311;28;20169;-69
2021/12/20 07:40:39;;;;;;;0.53;0.53;;;8.00;99.90;7.60;102653.00;;;;5117103;28;20261;-69
2021/12/20 07:43:14;;;;;;;0.30;0.30;;;7.90;99.90;8.40;102670.00;;;;5115663;28;20299;-70
2021/12/20 07:45:49;;;;;;;0.30;0.30;;;8.00;99.90;8.20;102671.00;;;;5115224;28;20185;-69
2021/12/20 07:48:25;;;;;;;0.30;0.30;;;8.20;99.90;7.60;102658.00;;;;5116584;28;20172;-69
2021/12/20 07:50:59;;;;;;;0.30;0.30;;;8.10;99.90;7.90;102665.00;;;;5098589;28;20191;-69
2021/12/20 07:53:38;;;;;;;0.30;0.30;;;7.90;99.90;6.80;102649.00;;;;5098211;28;20565;-69
2021/12/20 07:56:12;;;;;;;0.30;0.30;;;7.50;99.90;7.40;102646.00;;;;5098703;28;20196;-69
2021/12/20 07:58:46;;;;;;;0.30;0.30;;;7.50;99.90;7.20;102602.00;;;;5115285;28;20178;-69
2021/12/20 08:01:23;;;;;;;0.30;0.30;;;7.50;99.90;7.70;102659.00;;;;5116929;28;20649;-70
2021/12/20 08:03:59;;;;;;;0.30;0.30;;;7.60;99.90;8.20;102660.00;;;;5114875;28;20168;-70
2021/12/20 08:06:32;;;;;;;0.30;0.30;;;7.70;99.90;8.60;102675.00;;;;5116636;27;20178;-70
2021/12/20 08:09:11;;;;;;;0.30;0.30;;;8.00;99.90;8.70;102626.00;;;;5114824;28;20176;-69
2021/12/20 08:11:52;;;;;;;0.30;0.30;;;8.20;99.90;9.00;102688.00;;;;5114845;28;20297;-70
2021/12/20 08:14:24;;;;;;;0.30;0.30;;;8.40;99.90;8.30;102680.00;;;;5116467;28;20168;-70
2021/12/20 08:16:52;;;;;;;0.40;0.40;;;8.30;99.90;8.60;102668.00;;;;5115177;28;20183;-70
2021/12/20 08:19:24;;;;;;;0.30;0.30;;;8.20;99.90;8.30;102680.00;;;;5116058;28;20632;-70
2021/12/20 08:22:02;;;;;;;0.30;0.30;;;8.10;99.90;8.00;102688.00;;;;5114646;28;20191;-69
2021/12/20 08:24:42;;;;;;;0.30;0.30;;;8.10;99.90;8.40;102697.00;;;;5115354;28;20262;-70
2021/12/20 08:27:19;;;;;;;0.30;0.30;;;8.10;99.90;8.10;102688.00;;;;5114699;28;20246;-70
2021/12/20 08:29:50;;;;;;;0.30;0.30;;;8.10;99.90;8.50;102686.00;;;;5114648;28;20222;-70
2021/12/20 08:32:25;;;;;;;1.23;1.23;;;8.10;99.90;8.20;102701.00;;;;5114578;28;20203;-70
2021/12/20 08:34:58;;;;;;;0.40;0.40;;;8.10;99.90;7.60;102694.00;;;;5114989;28;20167;-70
2021/12/20 08:37:29;;;;;;;0.30;0.30;;;7.80;99.90;7.60;102685.00;;;;5114095;28;20178;-70
2021/12/20 08:40:10;;;;;;;0.30;0.30;;;7.70;99.90;7.70;102645.00;;;;5114674;28;20183;-70
2021/12/20 08:42:48;;;;;;;0.43;0.43;;;7.60;99.90;7.80;102690.00;;;;5114629;28;20241;-70
2021/12/20 08:45:27;;;;;;;0.30;0.30;;;7.70;99.90;8.40;102712.00;;;;5114868;28;20209;-70
2021/12/20 08:47:59;;;;;;;0.87;0.87;;;8.00;99.90;8.20;102703.00;;;;5114348;28;20225;-70
2021/12/20 08:50:30;;;;;;;0.30;0.30;;;8.00;99.90;8.70;102717.00;;;;5097116;28;20589;-70
2021/12/20 08:53:07;;;;;;;0.30;0.30;;;8.30;99.90;9.10;102727.00;;;;5096819;28;20215;-70
2021/12/20 08:55:42;;;;;;;0.30;0.30;;;8.50;99.90;8.80;102721.00;;;;5115485;28;20275;-70
2021/12/20 08:58:21;;;;;;;0.30;0.30;;;8.40;99.90;8.90;102721.00;;;;5113928;28;20187;-70
2021/12/20 09:00:53;;;;;;;0.30;0.30;;;8.50;99.90;8.50;102723.00;;;;5097752;28;20182;-70
2021/12/20 09:03:28;;;;;;;0.30;0.30;;;8.40;99.90;8.20;102720.00;;;;5113993;28;20736;-70
2021/12/20 09:06:08;;;;;;;0.30;0.30;;;8.20;99.90;8.90;102728.00;;;;5113772;28;20183;-70
2021/12/20 09:08:47;;;;;;;0.23;0.23;;;8.20;99.90;8.30;102730.00;;;;5114838;27;20196;-69
2021/12/20 09:11:25;;;;;;;0.30;0.30;;;8.20;99.90;9.20;102738.00;;;;5096370;28;20242;-70
2021/12/20 09:14:00;;;;;;;0.30;0.30;;;8.50;99.90;8.00;102747.00;;;;5113856;28;20182;-69
2021/12/20 09:16:31;;;;;;;0.30;0.30;;;8.30;99.90;8.50;102721.00;;;;5113026;28;20507;-70
2021/12/20 09:19:03;;;;;;;0.30;0.30;;;8.10;99.90;8.60;102739.00;;;;5113725;28;20172;-70
2021/12/20 09:21:34;;;;;;;0.30;0.30;;;8.20;99.90;8.10;102742.00;;;;5113685;28;20176;-70
2021/12/20 09:24:04;;;;;;;0.30;0.30;;;8.20;99.90;8.30;102737.00;;;;5113608;28;20169;-70
2021/12/20 09:26:38;;;;;;;0.30;0.30;;;8.00;99.90;8.30;102700.00;;;;5113631;28;20161;-70
2021/12/20 09:29:07;;;;;;;0.20;0.20;;;8.20;99.90;8.30;102729.00;;;;5096912;28;20177;-70
2021/12/20 09:31:35;;;;;;;0.30;0.30;;;8.20;99.90;8.00;102726.00;;;;5113370;28;20301;-70
2021/12/20 09:34:05;;;;;;;1.53;1.53;;;8.00;99.90;8.10;102740.00;;;;5114033;28;20245;-70
2021/12/20 09:36:42;;;;;;;0.30;0.30;;;8.00;99.90;8.80;102755.00;;;;5096217;28;20180;-71
2021/12/20 09:39:17;;;;;;;0.20;0.20;;;8.30;99.90;8.80;102767.00;;;;5114883;28;20179;-70
2021/12/20 09:44:25;;;;;;;0.40;0.40;;;8.50;99.90;8.60;102746.00;;;;5113296;28;20525;-69
2021/12/20 09:47:02;;;;;;;0.40;0.40;;;8.60;99.90;7.90;102739.00;;;;5113126;28;20589;-69
2021/12/20 09:49:41;;;;;;;0.30;0.30;;;8.30;99.90;7.80;102733.00;;;;5113272;28;20192;-70
2021/12/20 09:52:24;;;;;;;0.30;0.30;;;8.00;99.90;8.50;102756.00;;;;5113011;28;20207;-70
2021/12/20 09:54:58;;;;;;;1.47;1.37;;;8.20;99.90;8.60;102754.00;;;;5112927;28;20176;-70
2021/12/20 09:57:34;;;;;;;0.30;0.30;;;8.30;99.90;8.80;102750.00;;;;5112873;28;20181;-71
2021/12/20 10:00:07;;;;;;;0.30;0.30;;;8.40;99.90;8.60;102751.00;;;;5112850;28;20184;-70
2021/12/20 10:02:40;;;;;;;0.30;0.30;;;8.30;99.90;8.80;102764.00;;;;5095909;28;20522;-68
2021/12/20 10:05:11;;;;;;;0.30;0.30;;;8.40;99.90;9.00;102775.00;;;;5112541;28;20182;-69
2021/12/20 10:07:47;;;;;;;0.30;0.30;;;8.60;99.90;8.80;102772.00;;;;5112986;28;20522;-71
2021/12/20 10:10:55;;;;;;;0.67;0.67;;;8.50;99.90;8.20;102772.00;;;;5113201;28;20183;-70
2021/12/20 10:13:36;;;;;;;0.30;0.30;;;8.40;99.90;7.90;102761.00;;;;5112872;28;20539;-70
2021/12/20 10:16:17;;;;;;;0.23;0.23;;;8.20;99.90;8.20;102782.00;;;;5095647;28;20556;-70
2021/12/20 10:18:53;;;;;;;0.30;0.30;;;8.10;99.90;8.60;102779.00;;;;5114173;28;20175;-70
2021/12/20 10:33:35;;;;;;;0.30;0.30;;;7.80;99.90;7.80;102718.00;;;;5051878;28;21082;-69
2021/12/20 10:36:08;;;;;;;0.30;0.30;;;7.80;99.90;8.00;102732.00;;;;5049558;28;20178;-69
2021/12/20 10:38:43;;;;;;;0.20;0.20;;;7.90;99.90;7.90;102753.00;;;;5049633;28;20642;-69
2021/12/20 10:41:24;;;;;;;0.23;0.23;;;7.90;99.90;8.40;102756.00;;;;5049460;28;20638;-69
2021/12/20 10:43:59;;;;;;;0.30;0.30;;;8.00;99.90;7.90;102757.00;;;;5049329;28;20626;-69
2021/12/20 10:46:34;;;;;;;0.30;0.30;;;8.10;99.90;8.70;102719.00;;;;5049008;28;20175;-69
2021/12/20 10:49:06;;;;;;;0.63;0.63;;;8.30;99.90;8.30;102761.00;;;;5049498;28;20536;-70
2021/12/20 10:51:43;;;;;;;0.20;0.20;;;8.30;99.90;9.10;102769.00;;;;5049973;28;20680;-69
2021/12/20 10:54:17;;;;;;;0.20;0.20;;;8.50;99.90;9.10;102777.00;;;;5048979;28;20266;-69
2021/12/20 10:57:05;;;;;;;0.47;0.47;;;8.70;99.90;8.70;102782.00;;;;5050228;28;20186;-69
2021/12/20 10:59:44;;;;;;;0.20;0.20;;;8.60;99.90;8.00;102766.00;;;;5033129;28;20270;-69
2021/12/20 11:05:21;;;;;;;0.30;0.30;;;8.10;99.90;8.00;102758.00;;;;5049258;28;20673;-69
2021/12/20 11:11:16;;;;;;;0.30;0.30;;;8.20;99.90;9.40;102782.00;;;;5049150;28;20186;-69
2021/12/20 11:13:47;;;;;;;2.30;2.20;;;8.60;99.90;9.20;102780.00;;;;5032002;28;20592;-69
2021/12/20 11:16:32;;;;;;;0.30;0.30;;;8.70;99.90;9.50;102769.00;;;;5031922;28;20186;-69
2021/12/20 11:19:16;;;;;;;0.70;0.70;;;8.90;99.90;8.70;102796.00;;;;5049692;28;20178;-69
2021/12/20 11:21:58;;;;;;;0.20;0.20;;;8.80;99.90;9.20;102783.00;;;;5031964;28;20189;-70
2021/12/20 11:24:55;;;;;;;0.30;0.30;;;8.80;99.90;8.70;102785.00;;;;5048650;28;20199;-69
2021/12/20 11:27:34;;;;;;;0.43;0.43;;;8.70;99.90;8.00;102772.00;;;;5049612;28;20192;-69
2021/12/20 11:30:14;;;;;;;0.20;0.20;;;8.30;99.90;8.00;102773.00;;;;5048436;28;20189;-69
2021/12/20 11:32:50;;;;;;;0.50;0.50;;;8.10;99.90;8.30;102765.00;;;;5047941;28;20295;-69
2021/12/20 11:35:32;;;;;;;0.20;0.20;;;8.10;99.90;8.70;102782.00;;;;5031934;28;20178;-69
2021/12/20 11:38:09;;;;;;;0.60;0.60;;;8.30;99.90;9.30;102789.00;;;;5048605;28;20182;-69
2021/12/20 11:40:49;;;;;;;0.20;0.20;;;8.60;99.90;9.70;102799.00;;;;5048616;28;20271;-69
2021/12/20 11:43:23;;;;;;;0.40;0.40;;;8.90;99.90;8.30;102796.00;;;;5042142;28;20179;-70
2021/12/20 11:45:56;;;;;;;0.20;0.20;;;8.60;99.90;7.90;102770.00;;;;5017985;28;20185;-70
2021/12/20 11:48:32;;;;;;;0.30;0.30;;;8.30;99.90;8.20;102771.00;;;;5034773;28;20179;-70
2021/12/20 11:51:08;;;;;;;0.40;0.40;;;8.20;99.90;8.00;102760.00;;;;5034376;28;20184;-69
2021/12/20 11:53:37;;;;;;;0.20;0.20;;;8.00;99.90;8.10;102769.00;;;;5035516;28;20181;-68
2021/12/20 11:56:08;;;;;;;0.30;0.30;;;8.10;99.90;8.20;102761.00;;;;5034832;28;20638;-69
2021/12/20 11:58:46;;;;;;;0.20;0.20;;;8.10;99.90;8.50;102772.00;;;;5034746;28;20164;-69
2021/12/20 12:01:19;;;;;;;0.20;0.20;;;8.20;99.90;8.90;102781.00;;;;5018252;28;20533;-70
2021/12/20 12:03:57;;;;;;;0.73;0.50;;;8.40;99.90;7.50;102737.00;;;;5034569;28;20198;-70
2021/12/20 12:06:31;;;;;;;0.30;0.30;;;8.00;99.90;8.40;102741.00;;;;5018362;28;20181;-70
2021/12/20 12:09:10;;;;;;;0.20;0.20;;;8.20;99.90;8.40;102781.00;;;;5036011;28;20662;-69
2021/12/20 12:11:50;;;;;;;0.20;0.20;;;8.10;99.90;8.40;102764.00;;;;5035779;28;20199;-69
2021/12/20 12:14:34;;;;;;;0.20;0.20;;;8.10;99.90;8.60;102771.00;;;;5033962;28;20188;-69
2021/12/20 12:17:14;;;;;;;0.20;0.20;;;8.30;99.90;8.60;102776.00;;;;5034004;28;20258;-69